Time;durP1;ratioP1;P1;durP2;ratioP2;P2;SDS_P1;SDS_P2;PMS_P1;PMS_P2;Temp;Humidity;BMP_temperature;BMP_pressure;BME280_temperature;BME280_humidity;BME280_pressure;Samples;Min_cycle;Max_cycle;Signal;HPM_P1;HPM_P2
2022/03/25 00:01:46;;;;;;;31.95;11.05;;;;;;;11.34;29.17;100803.81;5074396;28;20611;-77
2022/03/25 00:04:11;;;;;;;27.15;11.35;;;;;;;11.32;29.23;100816.53;5092473;28;20496;-77
2022/03/25 00:06:37;;;;;;;28.10;12.38;;;;;;;11.26;29.38;100807.13;5092426;28;20036;-77
2022/03/25 00:09:02;;;;;;;30.50;13.52;;;;;;;11.29;29.78;100816.78;5092128;28;20121;-77
2022/03/25 00:11:28;;;;;;;28.67;11.38;;;;;;;11.20;29.66;100812.13;5073816;28;20118;-77
2022/03/25 00:13:53;;;;;;;26.88;11.23;;;;;;;11.21;29.46;100821.94;5092091;28;20031;-77
2022/03/25 00:16:19;;;;;;;26.95;12.57;;;;;;;11.14;29.40;100805.41;5092224;28;20454;-77
2022/03/25 00:18:44;;;;;;;27.80;13.38;;;;;;;11.17;29.79;100815.06;5092071;28;20028;-77
2022/03/25 00:21:10;;;;;;;30.75;13.07;;;;;;;11.15;29.67;100814.34;5092158;28;20038;-77
2022/03/25 00:23:36;;;;;;;28.33;11.60;;;;;;;11.13;29.27;100813.63;5092123;28;20028;-77
2022/03/25 00:26:02;;;;;;;34.22;12.75;;;;;;;11.17;29.59;100817.75;5073845;28;20501;-78
2022/03/25 00:28:28;;;;;;;23.55;11.52;;;;;;;11.13;29.47;100816.31;5073877;28;20413;-77
2022/03/25 00:30:54;;;;;;;27.63;11.23;;;;;;;11.07;29.20;100809.56;5092046;28;20106;-77
2022/03/25 00:33:20;;;;;;;23.33;11.80;;;;;;;11.14;29.13;100812.63;5092012;28;20036;-77
2022/03/25 00:35:45;;;;;;;26.73;11.43;;;;;;;11.13;29.05;100809.06;5091877;28;20128;-76
2022/03/25 00:38:12;;;;;;;25.23;9.70;;;;;;;11.15;29.30;100833.19;5073804;28;20180;-77
2022/03/25 00:40:37;;;;;;;25.75;11.82;;;;;;;11.05;29.59;100813.38;5073764;28;20026;-77
2022/03/25 00:43:03;;;;;;;22.98;11.15;;;;;;;11.03;29.60;100816.19;5092048;28;20460;-76
2022/03/25 00:45:29;;;;;;;33.10;14.90;;;;;;;10.99;29.14;100811.16;5074000;28;20028;-76
2022/03/25 00:47:58;;;;;;;23.00;11.35;;;;;;;11.03;29.52;100831.50;5073688;28;20028;-78
2022/03/25 00:50:24;;;;;;;21.15;11.27;;;;;;;11.07;29.44;100819.50;5073461;28;20028;-76
2022/03/25 00:52:50;;;;;;;18.25;10.85;;;;;;;11.06;29.63;100831.25;5073703;28;20095;-77
2022/03/25 00:55:16;;;;;;;27.52;12.15;;;;;;;11.00;29.35;100831.72;5091559;28;20115;-78
2022/03/25 00:57:42;;;;;;;32.97;11.75;;;;;;;10.99;29.32;100841.63;5091798;28;20028;-76
2022/03/25 01:00:09;;;;;;;20.98;11.10;;;;;;;10.98;29.41;100831.00;5073521;28;20023;-76
2022/03/25 01:02:35;;;;;;;25.30;10.73;;;;;;;11.04;29.67;100838.59;5091662;28;20461;-76
2022/03/25 01:05:00;;;;;;;29.98;11.15;;;;;;;10.94;29.25;100833.09;5073500;28;20035;-76
2022/03/25 01:07:26;;;;;;;22.20;10.38;;;;;;;10.98;29.26;100844.47;5073513;28;20032;-76
2022/03/25 01:09:51;;;;;;;23.55;10.98;;;;;;;10.89;29.05;100835.25;5091490;28;20040;-77
2022/03/25 01:12:17;;;;;;;27.20;10.13;;;;;;;10.97;29.43;100840.06;5091639;28;20097;-77
2022/03/25 01:14:43;;;;;;;27.05;10.48;;;;;;;10.94;29.10;100841.16;5091661;28;20053;-76
2022/03/25 01:17:09;;;;;;;18.17;10.85;;;;;;;10.83;29.11;100847.38;5091468;28;20039;-77
2022/03/25 01:19:34;;;;;;;27.05;11.35;;;;;;;10.80;29.38;100853.00;5091677;28;20024;-77
2022/03/25 01:22:00;;;;;;;22.83;11.30;;;;;;;10.74;29.46;100853.47;5091590;28;20028;-77
2022/03/25 01:24:26;;;;;;;23.45;10.65;;;;;;;10.78;29.29;100846.03;5091538;28;20116;-76
2022/03/25 01:26:52;;;;;;;28.20;11.18;;;;;;;10.74;29.32;100847.25;5073494;28;20032;-77
2022/03/25 01:29:17;;;;;;;22.58;10.38;;;;;;;10.66;29.16;100861.31;5091282;28;20032;-76
2022/03/25 01:31:43;;;;;;;20.67;11.20;;;;;;;10.54;29.64;100847.94;5091258;28;20024;-76
2022/03/25 01:34:09;;;;;;;25.50;11.20;;;;;;;10.48;29.92;100845.75;5091400;28;20434;-76
2022/03/25 01:36:34;;;;;;;25.90;10.93;;;;;;;10.52;30.03;100852.59;5073302;28;20118;-77
2022/03/25 01:39:01;;;;;;;23.45;10.73;;;;;;;10.35;30.19;100853.88;5073360;28;20035;-79
2022/03/25 01:41:26;;;;;;;20.92;11.13;;;;;;;10.33;30.49;100853.16;5091402;28;20036;-76
2022/03/25 01:43:58;;;;;;;17.20;10.68;;;;;;;10.32;30.51;100856.81;5091210;28;20036;-76
2022/03/25 01:46:24;;;;;;;27.55;10.40;;;;;;;10.18;30.75;100859.72;5091348;28;20047;-76
2022/03/25 01:48:50;;;;;;;25.10;11.20;;;;;;;10.21;30.58;100864.84;5091251;28;20447;-77
2022/03/25 01:51:23;;;;;;;28.73;11.55;;;;;;;10.19;30.79;100866.78;5091172;28;20031;-78
2022/03/25 01:53:49;;;;;;;21.88;10.80;;;;;;;10.27;30.78;100872.44;5091272;28;20077;-78
2022/03/25 01:56:22;;;;;;;20.20;11.57;;;;;;;10.33;30.87;100874.66;5091094;28;20024;-78
2022/03/25 01:58:48;;;;;;;31.33;11.15;;;;;;;10.30;31.00;100866.84;5073114;28;20089;-78
2022/03/25 02:01:14;;;;;;;24.70;11.00;;;;;;;10.27;31.11;100875.13;5073077;28;20024;-77
2022/03/25 02:03:40;;;;;;;24.40;10.73;;;;;;;10.23;31.29;100868.28;5072971;28;20031;-76
2022/03/25 02:06:06;;;;;;;28.42;11.07;;;;;;;10.32;31.09;100875.63;5073083;28;20028;-76
2022/03/25 02:08:32;;;;;;;20.40;11.15;;;;;;;10.27;30.89;100869.75;5093271;28;20405;-76
2022/03/25 02:10:58;;;;;;;21.05;10.95;;;;;;;10.25;30.98;100871.69;5094519;28;20415;-76
2022/03/25 02:13:24;;;;;;;22.83;9.85;;;;;;;10.31;31.02;100876.59;5094395;28;20125;-76
2022/03/25 02:15:49;;;;;;;34.35;11.20;;;;;;;10.26;31.25;100876.09;5094552;28;20056;-77
2022/03/25 02:18:18;;;;;;;28.40;11.38;;;;;;;10.24;31.39;100870.81;5094537;28;20068;-76
2022/03/25 02:20:45;;;;;;;23.17;11.38;;;;;;;10.24;31.29;100883.44;5094511;28;20386;-76
2022/03/25 02:23:12;;;;;;;27.75;11.10;;;;;;;10.13;31.49;100880.66;5076185;28;20028;-77
2022/03/25 02:25:39;;;;;;;19.77;10.15;;;;;;;10.13;31.57;100878.84;5094442;28;20111;-76
2022/03/25 02:28:06;;;;;;;29.35;11.90;;;;;;;10.17;31.51;100884.88;5094511;28;20438;-77
2022/03/25 02:30:33;;;;;;;23.42;9.73;;;;;;;10.25;31.57;100887.81;5076127;28;20032;-77
2022/03/25 02:33:04;;;;;;;21.85;10.50;;;;;;;10.25;31.68;100877.94;5076154;28;20110;-75
2022/03/25 02:35:40;;;;;;;24.60;11.00;;;;;;;10.16;31.46;100869.69;5094387;28;20555;-76
2022/03/25 02:38:07;;;;;;;23.88;10.32;;;;;;;10.21;31.62;100891.72;5094334;28;20485;-76
2022/03/25 02:40:33;;;;;;;19.52;11.13;;;;;;;10.18;31.64;100886.59;5094199;28;20028;-76
2022/03/25 02:42:58;;;;;;;29.15;10.90;;;;;;;10.07;31.98;100891.84;5094093;28;20028;-76
2022/03/25 02:45:24;;;;;;;34.45;11.55;;;;;;;10.04;32.00;100884.91;5076082;28;20126;-75
2022/03/25 02:47:50;;;;;;;24.70;11.07;;;;;;;10.04;32.06;100886.72;5094158;28;20028;-77
2022/03/25 02:50:16;;;;;;;21.38;10.48;;;;;;;10.05;32.31;100877.69;5093790;28;20550;-78
2022/03/25 02:52:42;;;;;;;25.63;10.88;;;;;;;10.05;32.38;100885.75;5093808;28;20031;-77
2022/03/25 02:55:12;;;;;;;25.52;11.68;;;;;;;10.11;31.99;100890.66;5093966;28;20054;-77
2022/03/25 02:57:37;;;;;;;25.27;11.18;;;;;;;10.06;32.28;100879.41;5093797;28;20451;-77
2022/03/25 03:00:08;;;;;;;28.73;11.32;;;;;;;10.08;32.21;100888.22;5093774;28;20446;-76
2022/03/25 03:02:34;;;;;;;22.88;13.05;;;;;;;10.03;32.41;100890.41;5075858;28;20032;-76
2022/03/25 03:04:59;;;;;;;24.77;10.77;;;;;;;10.01;32.62;100885.13;5093878;28;20042;-77
2022/03/25 03:07:25;;;;;;;16.58;10.75;;;;;;;9.98;32.30;100896.09;5075594;28;20028;-78
2022/03/25 03:09:50;;;;;;;19.05;10.02;;;;;;;9.94;32.63;100899.16;5075275;28;20486;-76
2022/03/25 03:12:16;;;;;;;26.17;11.23;;;;;;;9.97;32.32;100909.66;5075573;28;20028;-78
2022/03/25 03:14:41;;;;;;;21.92;11.48;;;;;;;9.88;32.71;100899.59;5093509;28;20030;-76
2022/03/25 03:17:08;;;;;;;22.70;9.85;;;;;;;9.88;32.76;100896.91;5093587;28;20020;-78
2022/03/25 03:19:34;;;;;;;27.13;10.73;;;;;;;9.93;32.59;100909.03;5074198;28;20030;-76
2022/03/25 03:22:00;;;;;;;26.55;10.65;;;;;;;9.95;32.67;100911.59;5093335;28;20111;-75
2022/03/25 03:24:26;;;;;;;23.08;10.80;;;;;;;9.86;33.00;100913.13;5075391;28;20028;-76
2022/03/25 03:26:52;;;;;;;23.40;11.02;;;;;;;9.96;32.80;100914.19;5093437;28;20032;-77
2022/03/25 03:29:18;;;;;;;23.70;10.13;;;;;;;9.97;32.73;100920.41;5093115;28;20097;-76
2022/03/25 03:31:44;;;;;;;24.50;10.70;;;;;;;10.04;32.63;100921.66;5093140;28;20020;-76
2022/03/25 03:34:09;;;;;;;19.27;10.80;;;;;;;10.03;32.39;100931.53;5074967;28;20508;-76
2022/03/25 03:36:35;;;;;;;22.27;11.15;;;;;;;9.98;32.42;100938.22;5093034;28;20020;-77
2022/03/25 03:39:00;;;;;;;20.83;10.10;;;;;;;9.87;32.94;100927.44;5092996;28;20032;-76
2022/03/25 03:41:27;;;;;;;24.40;10.40;;;;;;;9.99;32.71;100935.44;5075122;28;20058;-78
2022/03/25 03:43:52;;;;;;;26.83;11.60;;;;;;;10.01;32.53;100940.69;5092991;28;20035;-76
2022/03/25 03:46:18;;;;;;;26.52;11.55;;;;;;;10.09;32.76;100949.06;5092904;28;20024;-76
2022/03/25 03:48:44;;;;;;;22.23;11.23;;;;;;;9.90;32.62;100951.38;5092783;28;20065;-76
2022/03/25 03:51:10;;;;;;;20.77;10.30;;;;;;;9.88;32.96;100964.91;5092746;28;20027;-75
2022/03/25 03:53:35;;;;;;;33.60;11.38;;;;;;;10.00;32.91;100960.50;5092684;28;20593;-76
2022/03/25 03:56:01;;;;;;;22.25;11.35;;;;;;;10.12;32.81;100967.66;5092581;28;20034;-76
2022/03/25 03:58:26;;;;;;;21.50;11.40;;;;;;;10.24;32.59;100974.84;5077333;28;20602;-75
2022/03/25 04:00:52;;;;;;;29.38;13.93;;;;;;;10.31;32.08;100978.75;5102688;28;20036;-76
2022/03/25 04:03:17;;;;;;;31.05;15.32;;;;;;;10.37;31.91;100983.66;5102383;28;20034;-75
2022/03/25 04:05:44;;;;;;;30.88;14.57;;;;;;;10.38;31.93;100980.03;5101182;28;20027;-76
2022/03/25 04:08:10;;;;;;;29.50;13.80;;;;;;;10.37;32.03;100986.34;5100476;28;20035;-75
2022/03/25 04:10:36;;;;;;;26.77;12.20;;;;;;;10.37;31.86;100979.16;5098565;28;20036;-76
2022/03/25 04:13:01;;;;;;;26.45;12.77;;;;;;;10.46;31.95;100976.78;5083133;28;20020;-76
2022/03/25 04:15:27;;;;;;;24.33;11.70;;;;;;;10.55;31.72;100978.78;5103072;28;20465;-76
2022/03/25 04:17:52;;;;;;;21.08;12.15;;;;;;;10.50;31.56;100976.41;5101362;28;20019;-77
2022/03/25 04:20:18;;;;;;;32.50;14.10;;;;;;;10.47;31.49;100978.47;5083420;28;20011;-76
2022/03/25 04:22:45;;;;;;;24.20;11.57;;;;;;;10.56;31.30;100992.09;5102852;28;20031;-76
2022/03/25 04:25:11;;;;;;;26.95;13.40;;;;;;;10.49;31.48;100977.38;5084601;28;20491;-78
2022/03/25 04:27:55;;;;;;;35.10;14.45;;;;;;;10.50;31.40;100986.31;5100443;28;20027;-76
2022/03/25 04:30:27;;;;;;;22.67;12.60;;;;;;;10.49;31.46;100972.00;5102186;28;20421;-80
2022/03/25 04:32:53;;;;;;;;;;;;;;;10.31;31.74;100989.50;5101589;28;20046;-76
2022/03/25 04:35:19;;;;;;;20.45;11.63;;;;;;;10.35;31.59;100989.19;5085184;28;19908;-78
2022/03/25 04:37:46;;;;;;;27.30;11.98;;;;;;;10.27;31.68;100988.88;5100450;28;20121;-79
2022/03/25 04:40:17;;;;;;;29.08;13.10;;;;;;;10.31;31.79;100985.00;5102387;28;20464;-78
2022/03/25 04:42:50;;;;;;;32.53;11.95;;;;;;;10.25;31.67;100998.03;5100119;28;20189;-78
2022/03/25 04:45:16;;;;;;;40.78;12.23;;;;;;;10.25;31.87;100998.03;5096938;28;20020;-78
2022/03/25 04:47:42;;;;;;;29.60;11.18;;;;;;;10.19;31.18;100995.78;5073773;28;20168;-78
2022/03/25 04:50:09;;;;;;;27.80;12.10;;;;;;;10.23;31.81;101005.34;5091354;28;20024;-76
2022/03/25 04:52:35;;;;;;;27.80;14.25;;;;;;;10.18;31.59;101012.91;5091359;28;20035;-75
2022/03/25 04:55:01;;;;;;;21.70;10.68;;;;;;;10.26;31.79;101023.94;5091461;28;20126;-75
2022/03/25 04:57:26;;;;;;;28.90;12.43;;;;;;;10.24;31.62;101025.91;5091653;28;20051;-76
2022/03/25 04:59:52;;;;;;;41.05;13.88;;;;;;;10.13;31.73;101017.72;5091372;28;20039;-76
2022/03/25 05:02:17;;;;;;;62.75;17.08;;;;;;;10.21;31.86;101039.56;5073211;28;20085;-77
2022/03/25 05:04:43;;;;;;;22.30;11.73;;;;;;;10.25;31.68;101043.72;5073411;28;20035;-76
2022/03/25 05:07:17;;;;;;;68.07;14.48;;;;;;;10.13;32.08;101031.16;5091534;28;20103;-76
2022/03/25 05:09:44;;;;;;;34.42;12.77;;;;;;;10.18;31.74;101043.31;5091167;28;20474;-76
2022/03/25 05:12:10;;;;;;;28.90;13.10;;;;;;;10.14;31.71;101060.66;5091310;28;20097;-76
2022/03/25 05:14:36;;;;;;;34.33;12.80;;;;;;;10.03;31.78;101063.22;5091409;28;20062;-75
2022/03/25 05:17:01;;;;;;;31.13;13.00;;;;;;;10.01;32.02;101061.59;5091143;28;20024;-77
2022/03/25 05:19:27;;;;;;;33.90;12.43;;;;;;;9.98;31.87;101048.41;5073275;28;20024;-77
2022/03/25 05:21:53;;;;;;;20.73;11.48;;;;;;;10.02;31.93;101047.22;5091744;28;20046;-78
2022/03/25 05:24:19;;;;;;;41.38;13.52;;;;;;;9.97;31.99;101034.09;5091182;28;20024;-77
2022/03/25 05:26:44;;;;;;;32.83;12.90;;;;;;;10.14;31.90;101051.72;5091390;28;20085;-76
2022/03/25 05:29:10;;;;;;;22.38;13.40;;;;;;;10.13;31.90;101044.59;5072986;28;20040;-77
2022/03/25 05:31:37;;;;;;;44.85;13.68;;;;;;;10.26;31.97;101048.16;5091011;28;20035;-76
2022/03/25 05:34:06;;;;;;;32.28;13.88;;;;;;;10.36;31.73;101051.88;5073053;28;20031;-76
2022/03/25 05:36:33;;;;;;;37.00;14.18;;;;;;;10.47;31.70;101060.00;5091284;28;20032;-77
2022/03/25 05:38:59;;;;;;;58.08;17.25;;;;;;;10.52;31.79;101046.22;5091204;28;20050;-76
2022/03/25 05:41:26;;;;;;;30.42;13.32;;;;;;;10.64;31.37;101054.22;5075361;28;20161;-77
2022/03/25 05:43:53;;;;;;;28.45;13.60;;;;;;;10.58;31.07;101045.78;5093747;28;20127;-77
2022/03/25 05:46:18;;;;;;;29.25;13.13;;;;;;;10.65;31.54;101038.94;5094117;28;20028;-76
2022/03/25 05:48:44;;;;;;;26.27;13.75;;;;;;;10.66;31.13;101044.22;5075779;28;20066;-77
2022/03/25 05:51:11;;;;;;;30.48;12.23;;;;;;;10.62;31.31;101056.16;5094304;28;20067;-76
2022/03/25 05:53:37;;;;;;;35.08;13.30;;;;;;;10.73;31.28;101056.22;5075922;28;20484;-76
2022/03/25 05:56:05;;;;;;;39.97;15.75;;;;;;;10.79;31.34;101065.69;5094055;28;20458;-76
2022/03/25 05:58:35;;;;;;;35.65;14.45;;;;;;;10.90;31.52;101071.97;5094493;28;20511;-76
2022/03/25 06:01:01;;;;;;;31.67;14.48;;;;;;;10.95;30.94;101062.69;5094471;28;20028;-76
2022/03/25 06:03:27;;;;;;;36.72;17.77;;;;;;;10.90;31.92;101066.59;5094317;28;20024;-75
2022/03/25 06:05:53;;;;;;;49.72;17.92;;;;;;;10.96;32.49;101072.47;5093840;28;20177;-76
2022/03/25 06:08:18;;;;;;;44.15;17.08;;;;;;;11.01;32.83;101056.84;5094082;28;20039;-76
2022/03/25 06:10:44;;;;;;;51.60;18.17;;;;;;;11.12;33.21;101073.88;5093983;28;20044;-76
2022/03/25 06:13:09;;;;;;;51.38;17.83;;;;;;;11.22;32.94;101071.34;5075677;28;20134;-75
2022/03/25 06:15:35;;;;;;;47.33;18.50;;;;;;;11.22;33.34;101074.88;5075950;28;20032;-75
2022/03/25 06:18:00;;;;;;;40.80;17.13;;;;;;;11.24;33.34;101077.47;5094025;28;20097;-75
2022/03/25 06:20:28;;;;;;;56.47;17.60;;;;;;;11.33;32.87;101082.13;5093773;28;20096;-76
2022/03/25 06:22:53;;;;;;;43.08;18.40;;;;;;;11.33;32.53;101071.38;5093897;28;20024;-75
2022/03/25 06:25:20;;;;;;;38.88;16.00;;;;;;;11.42;32.48;101073.34;5075713;28;20035;-76
2022/03/25 06:27:52;;;;;;;38.67;18.05;;;;;;;11.55;32.58;101087.59;5094059;28;20401;-77
2022/03/25 06:30:19;;;;;;;;;;;;;;;11.55;31.54;101076.81;5094272;28;20050;-76
2022/03/25 06:32:44;;;;;;;50.92;18.15;;;;;;;11.53;32.70;101067.13;5075424;28;20286;-76
2022/03/25 06:35:10;;;;;;;48.13;17.27;;;;;;;11.69;32.25;101081.09;5093812;28;20468;-75
2022/03/25 06:37:36;;;;;;;30.50;16.83;;;;;;;11.82;32.19;101082.75;5093671;28;20561;-76
2022/03/25 06:40:07;;;;;;;33.40;14.68;;;;;;;11.89;32.02;101066.94;5093690;28;20375;-76
2022/03/25 06:42:37;;;;;;;28.05;14.10;;;;;;;11.94;31.14;101073.69;5093511;28;20047;-76
2022/03/25 06:45:08;;;;;;;28.58;14.05;;;;;;;11.99;30.91;101082.25;5093398;28;20024;-76
2022/03/25 06:47:34;;;;;;;26.08;13.80;;;;;;;11.97;30.75;101070.75;5075151;28;20115;-75
2022/03/25 06:50:00;;;;;;;34.42;15.25;;;;;;;12.04;31.05;101078.34;5074958;28;20042;-75
2022/03/25 06:52:26;;;;;;;37.80;14.57;;;;;;;12.19;31.02;101082.50;5074973;28;20028;-76
2022/03/25 06:54:52;;;;;;;34.53;12.55;;;;;;;12.25;30.95;101077.47;5092823;28;20020;-75
2022/03/25 06:57:18;;;;;;;44.40;14.05;;;;;;;12.32;30.80;101083.22;5074943;28;20506;-76
2022/03/25 06:59:43;;;;;;;34.20;17.02;;;;;;;12.41;31.02;101071.69;5093122;28;20031;-76
2022/03/25 07:02:10;;;;;;;41.30;15.93;;;;;;;12.57;30.92;101076.69;5092742;28;20469;-76
2022/03/25 07:04:37;;;;;;;25.55;12.75;;;;;;;12.63;30.89;101068.06;5093218;28;20474;-76
2022/03/25 07:07:04;;;;;;;36.65;13.75;;;;;;;12.60;31.15;101079.13;5074950;28;20036;-78
2022/03/25 07:09:31;;;;;;;31.33;13.73;;;;;;;12.66;31.42;101075.91;5092834;28;20433;-77
2022/03/25 07:11:57;;;;;;;32.45;12.85;;;;;;;12.82;31.21;101085.28;5093207;28;20060;-76
2022/03/25 07:14:23;;;;;;;26.45;12.85;;;;;;;12.89;31.17;101077.53;5092917;28;20041;-76
2022/03/25 07:16:48;;;;;;;22.17;11.90;;;;;;;13.04;31.21;101076.25;5074863;28;20035;-76
2022/03/25 07:19:14;;;;;;;19.45;10.57;;;;;;;13.08;31.60;101067.81;5074563;28;20036;-77
2022/03/25 07:21:39;;;;;;;24.98;11.27;;;;;;;13.15;31.82;101078.09;5092778;28;20057;-77
2022/03/25 07:24:05;;;;;;;45.35;12.25;;;;;;;13.17;31.74;101086.91;5092675;28;20032;-75
2022/03/25 07:26:31;;;;;;;35.53;11.75;;;;;;;13.14;31.96;101084.47;5092764;28;20146;-76
2022/03/25 07:28:56;;;;;;;43.70;16.73;;;;;;;13.06;31.32;101080.53;5092502;28;20470;-76
2022/03/25 07:31:27;;;;;;;31.98;10.02;;;;;;;13.04;31.95;101060.03;5074283;28;20024;-77
2022/03/25 07:33:54;;;;;;;22.08;9.95;;;;;;;13.18;31.54;101075.13;5092671;28;20036;-76
2022/03/25 07:36:19;;;;;;;22.80;10.95;;;;;;;13.17;31.88;101065.31;5092311;28;20111;-77
2022/03/25 07:38:45;;;;;;;28.75;12.95;;;;;;;13.35;31.96;101074.53;5074495;28;20516;-76
2022/03/25 07:41:10;;;;;;;21.33;10.27;;;;;;;13.46;31.23;101072.59;5092472;28;20414;-75
2022/03/25 07:43:36;;;;;;;21.30;10.27;;;;;;;13.47;31.27;101059.97;5092252;28;20035;-76
2022/03/25 07:46:01;;;;;;;22.63;9.32;;;;;;;13.45;30.91;101054.72;5091924;28;20092;-76
2022/03/25 07:48:27;;;;;;;24.45;10.75;;;;;;;13.55;30.58;101068.25;5092137;28;20045;-76
2022/03/25 07:50:52;;;;;;;24.27;11.02;;;;;;;13.53;31.14;101063.00;5091790;28;20020;-77
2022/03/25 07:53:18;;;;;;;23.65;10.90;;;;;;;13.59;30.87;101061.59;5092274;28;20027;-77
2022/03/25 07:55:44;;;;;;;19.95;10.80;;;;;;;13.54;31.28;101053.03;5073909;28;20070;-77
2022/03/25 07:58:10;;;;;;;25.08;10.85;;;;;;;13.56;31.12;101061.88;5092019;28;20036;-77
2022/03/25 08:00:35;;;;;;;22.20;10.35;;;;;;;13.64;30.64;101056.63;5057191;28;20024;-76
2022/03/25 08:03:00;;;;;;;26.67;10.07;;;;;;;13.70;30.91;101060.69;5092006;28;20040;-76
2022/03/25 08:05:26;;;;;;;22.10;11.68;;;;;;;13.70;30.57;101069.63;5091416;28;20078;-77
2022/03/25 08:07:54;;;;;;;24.67;11.02;;;;;;;13.72;30.81;101061.38;5073601;28;20031;-77
2022/03/25 08:10:28;;;;;;;26.15;14.20;;;;;;;13.65;31.01;101063.75;5091612;28;20048;-76
2022/03/25 08:12:56;;;;;;;24.20;12.38;;;;;;;13.67;30.95;101067.19;5091764;28;20031;-77
2022/03/25 08:15:23;;;;;;;25.05;11.77;;;;;;;13.73;30.71;101063.94;5073665;28;20032;-77
2022/03/25 08:18:00;;;;;;;30.90;14.00;;;;;;;13.81;31.13;101049.75;5091616;28;20046;-77
2022/03/25 08:20:36;;;;;;;25.27;11.50;;;;;;;13.93;30.99;101059.50;5091532;28;20057;-77
2022/03/25 08:23:03;;;;;;;21.38;10.57;;;;;;;14.08;30.58;101053.59;5091643;28;20035;-76
2022/03/25 08:28:14;;;;;;;23.17;11.35;;;;;;;14.22;30.49;101040.69;5091760;28;20035;-76
2022/03/25 08:30:40;;;;;;;26.35;11.27;;;;;;;14.32;30.97;101045.09;5091507;28;20032;-76
2022/03/25 08:33:07;;;;;;;22.90;11.82;;;;;;;14.46;30.19;101042.03;5091287;28;20104;-76
2022/03/25 08:35:33;;;;;;;18.98;11.40;;;;;;;14.49;30.17;101043.63;5073251;28;20036;-76
2022/03/25 08:37:59;;;;;;;23.98;10.80;;;;;;;14.56;29.75;101028.50;5073188;28;20050;-76
2022/03/25 08:40:27;;;;;;;14.85;9.95;;;;;;;14.64;29.87;101040.38;5091378;28;20098;-77
2022/03/25 08:42:52;;;;;;;17.90;10.98;;;;;;;14.59;29.56;101031.78;5091291;28;20036;-76
2022/03/25 08:45:19;;;;;;;31.35;9.95;;;;;;;14.65;29.71;101020.41;5091290;28;20020;-76
2022/03/25 08:47:45;;;;;;;27.90;10.18;;;;;;;14.63;29.26;101043.19;5073154;28;20074;-76
2022/03/25 08:50:13;;;;;;;23.92;12.52;;;;;;;14.64;29.35;101040.38;5091196;28;20089;-76
2022/03/25 08:52:46;;;;;;;30.27;11.32;;;;;;;14.71;29.69;101046.06;5073096;28;20451;-77
2022/03/25 08:55:13;;;;;;;45.08;11.82;;;;;;;14.72;29.60;101042.34;5091060;28;20398;-77
2022/03/25 08:57:40;;;;;;;22.90;11.25;;;;;;;14.71;29.64;101040.63;5091143;28;20024;-78
2022/03/25 09:00:10;;;;;;;25.48;10.90;;;;;;;14.85;29.69;101040.25;5091083;28;20046;-76
2022/03/25 09:02:37;;;;;;;18.85;10.73;;;;;;;15.06;29.38;101046.34;5072941;28;20450;-76
2022/03/25 09:05:04;;;;;;;21.10;10.02;;;;;;;15.21;29.13;101036.78;5091008;28;20058;-76
2022/03/25 09:07:30;;;;;;;23.63;9.05;;;;;;;15.35;28.78;101035.47;5090970;28;20558;-77
2022/03/25 09:09:55;;;;;;;21.23;11.02;;;;;;;15.53;28.69;101046.47;5090787;28;20163;-76
2022/03/25 09:12:21;;;;;;;20.33;8.75;;;;;;;15.35;28.68;101018.38;5090937;28;20419;-77
2022/03/25 09:14:46;;;;;;;20.67;9.88;;;;;;;15.40;28.56;101026.91;5072777;28;20024;-76
2022/03/25 09:17:12;;;;;;;37.17;11.15;;;;;;;15.50;28.12;101039.50;5072872;28;20084;-77
2022/03/25 09:19:37;;;;;;;17.42;9.80;;;;;;;15.42;27.95;101041.16;5095048;28;20024;-76
2022/03/25 09:22:03;;;;;;;20.80;10.05;;;;;;;15.34;28.11;101035.63;5094462;28;20474;-77
2022/03/25 09:24:30;;;;;;;20.63;10.95;;;;;;;15.35;28.13;101023.81;5094803;28;20473;-76
2022/03/25 09:26:55;;;;;;;25.98;9.93;;;;;;;15.50;28.12;101022.38;5076803;28;20085;-77
2022/03/25 09:29:24;;;;;;;23.20;9.25;;;;;;;15.71;27.86;101025.72;5094903;28;20032;-76
2022/03/25 09:31:49;;;;;;;23.45;10.90;;;;;;;15.78;27.95;101026.81;5094711;28;20066;-76
2022/03/25 09:36:59;;;;;;;33.28;11.35;;;;;;;15.94;27.56;101018.91;5094925;28;20564;-76
2022/03/25 09:39:24;;;;;;;19.20;9.65;;;;;;;15.77;27.33;101014.28;5094444;28;20036;-77
2022/03/25 09:41:50;;;;;;;16.48;9.90;;;;;;;15.77;27.69;101030.56;5094440;28;20026;-77
2022/03/25 09:44:17;;;;;;;28.77;11.95;;;;;;;15.90;27.56;101022.91;5094592;28;20028;-76
2022/03/25 09:46:43;;;;;;;30.40;13.38;;;;;;;15.88;27.25;101019.50;5077719;28;20024;-76
2022/03/25 09:49:10;;;;;;;26.27;10.80;;;;;;;15.84;27.48;101020.81;5094646;28;20557;-76
2022/03/25 09:51:36;;;;;;;26.02;11.88;;;;;;;15.74;26.89;100998.31;5094386;28;20035;-76
2022/03/25 09:54:02;;;;;;;23.08;11.27;;;;;;;15.90;27.01;101019.38;5076139;28;20346;-76
2022/03/25 09:56:28;;;;;;;32.50;10.60;;;;;;;15.91;27.11;101011.06;5094210;28;20028;-77
2022/03/25 09:58:53;;;;;;;22.63;10.63;;;;;;;15.99;26.79;101034.75;5094133;28;20028;-76
2022/03/25 10:01:20;;;;;;;30.67;10.38;;;;;;;16.08;26.81;101037.44;5094315;28;20042;-76
2022/03/25 10:03:45;;;;;;;19.17;10.48;;;;;;;16.15;26.94;101013.22;5094206;28;20028;-76
2022/03/25 10:06:12;;;;;;;21.65;10.80;;;;;;;16.21;27.13;101024.34;5094651;28;20091;-76
2022/03/25 10:08:38;;;;;;;50.65;11.65;;;;;;;16.32;26.84;101013.28;5075902;28;20024;-77
2022/03/25 10:11:30;;;;;;;21.13;10.50;;;;;;;16.32;26.73;101007.88;5075650;28;20044;-76
2022/03/25 10:14:17;;;;;;;27.70;10.93;;;;;;;16.31;26.04;101014.28;5094164;28;20558;-77
2022/03/25 10:16:45;;;;;;;24.92;10.32;;;;;;;16.37;26.32;101012.81;5094082;28;20028;-76
2022/03/25 10:19:11;;;;;;;16.73;9.98;;;;;;;16.45;26.69;101021.03;5075864;28;20039;-77
2022/03/25 10:21:57;;;;;;;24.60;10.85;;;;;;;16.50;26.75;101015.16;5093866;28;20466;-76
2022/03/25 10:24:41;;;;;;;27.52;10.98;;;;;;;16.44;26.55;101013.06;5093979;28;20464;-76
2022/03/25 10:27:07;;;;;;;23.20;10.45;;;;;;;16.35;26.57;101020.28;5093885;28;20034;-76
2022/03/25 10:29:35;;;;;;;23.27;11.07;;;;;;;16.36;27.00;101023.84;5093395;28;20028;-75
2022/03/25 10:32:05;;;;;;;16.77;9.68;;;;;;;16.32;27.22;101015.16;5075532;28;20082;-76
2022/03/25 10:34:31;;;;;;;19.42;11.13;;;;;;;16.50;27.17;101007.03;5093639;28;20097;-76
2022/03/25 10:37:05;;;;;;;16.98;9.70;;;;;;;16.60;27.46;101014.13;5075746;28;20113;-77
2022/03/25 10:39:31;;;;;;;40.53;10.70;;;;;;;16.52;27.20;101015.84;5075519;28;20081;-76
2022/03/25 10:42:00;;;;;;;21.35;10.00;;;;;;;16.46;27.34;101016.47;5093450;28;20469;-77
2022/03/25 10:44:51;;;;;;;22.83;10.38;;;;;;;16.46;27.65;101021.91;5075173;28;20108;-77
2022/03/25 10:47:22;;;;;;;22.80;11.25;;;;;;;16.31;27.71;101019.72;5090078;28;20032;-77
2022/03/25 10:49:48;;;;;;;33.88;11.75;;;;;;;16.32;27.50;101016.00;5093322;28;20029;-77
2022/03/25 10:52:23;;;;;;;22.13;10.23;;;;;;;16.43;27.55;101003.19;5075181;28;20024;-77
2022/03/25 10:54:49;;;;;;;16.83;10.25;;;;;;;16.51;27.78;101015.00;5075221;28;20024;-78
2022/03/25 10:57:17;;;;;;;18.63;10.80;;;;;;;16.63;26.91;101007.53;5093334;28;20119;-79
2022/03/25 10:59:56;;;;;;;38.55;11.35;;;;;;;16.81;27.19;101002.97;5093673;28;20024;-79
2022/03/25 11:02:21;;;;;;;23.67;11.13;;;;;;;17.03;26.64;101004.34;5075401;28;20028;-78
2022/03/25 11:04:49;;;;;;;31.67;13.00;;;;;;;17.20;26.87;101006.16;5093126;28;20039;-79
2022/03/25 11:07:14;;;;;;;24.33;10.27;;;;;;;17.34;26.37;101014.59;5093507;28;20036;-79
2022/03/25 11:09:40;;;;;;;19.15;9.32;;;;;;;17.18;26.28;100998.19;5074826;28;20044;-77
2022/03/25 11:12:10;;;;;;;32.30;12.88;;;;;;;17.10;26.14;101013.56;5093262;28;20020;-78
2022/03/25 11:14:36;;;;;;;18.75;10.55;;;;;;;16.93;26.42;101004.44;5093037;28;20107;-79
2022/03/25 11:17:02;;;;;;;18.73;10.32;;;;;;;16.88;26.25;101007.59;5093034;28;20099;-79